createdAt,value
2019-01-03T00:07:28.281Z,1.09
2019-01-03T00:22:45.180Z,1.06
2019-01-03T00:37:56.085Z,1.35
2019-01-03T00:53:08.222Z,1.58
2019-01-03T01:08:22.254Z,0.68
2019-01-03T01:23:40.228Z,0.14
2019-01-03T01:38:57.163Z,0.08
2019-01-03T01:54:21.215Z,0.08
2019-01-03T02:09:37.599Z,-0.40
2019-01-03T02:25:03.172Z,0.25
2019-01-03T02:40:13.518Z,0.26
2019-01-03T02:55:36.042Z,0.80
2019-01-03T03:11:04.299Z,0.49
2019-01-03T03:26:12.407Z,0.38
2019-01-03T03:41:20.293Z,0.50
2019-01-03T03:56:27.959Z,-0.30
2019-01-03T04:11:41.472Z,-0.05
2019-01-03T04:26:49.066Z,-0.67
2019-01-03T04:41:57.064Z,-0.41
2019-01-03T04:57:20.614Z,-0.12
2019-01-03T05:12:44.939Z,-0.23
2019-01-03T05:27:51.533Z,-0.36
2019-01-03T05:43:11.326Z,-0.33
2019-01-03T05:58:25.035Z,-0.13
2019-01-03T06:13:42.362Z,0.12
2019-01-03T06:28:53.178Z,-0.05
2019-01-03T06:44:16.072Z,0.19
2019-01-03T06:59:23.679Z,-0.30
2019-01-03T07:14:47.745Z,-0.18
2019-01-03T07:30:10.667Z,0.50
2019-01-03T07:45:34.540Z,1.32
2019-01-03T08:00:45.360Z,1.74
2019-01-03T08:15:56.030Z,1.56
2019-01-03T08:31:03.639Z,1.68
2019-01-03T08:46:11.381Z,1.70
2019-01-03T09:01:19.063Z,2.03
2019-01-03T09:16:44.563Z,1.86
2019-01-03T09:32:07.493Z,1.82
2019-01-03T09:47:13.439Z,1.87
2019-01-03T10:02:19.371Z,1.85
2019-01-03T10:17:25.417Z,1.95
2019-01-03T10:32:31.674Z,1.71
2019-01-03T10:47:37.598Z,1.43
2019-01-03T11:02:43.537Z,1.99
2019-01-03T11:17:49.341Z,2.09
2019-01-03T11:32:55.726Z,1.91
2019-01-03T11:48:01.778Z,1.88
2019-01-03T12:03:07.700Z,2.08
2019-01-03T12:18:13.484Z,1.52
2019-01-03T12:33:19.486Z,1.41
2019-01-03T12:48:25.444Z,1.45
2019-01-03T13:03:35.355Z,1.45
2019-01-03T13:18:41.147Z,0.99
2019-01-03T13:33:47.207Z,1.16
2019-01-03T13:48:53.146Z,1.24
2019-01-03T14:03:59.251Z,1.08
2019-01-03T14:19:06.492Z,1.11
2019-01-03T14:34:12.815Z,1.23
2019-01-03T14:49:18.973Z,1.14
2019-01-03T15:04:25.109Z,0.54
2019-01-03T15:19:31.108Z,1.14
2019-01-03T15:34:36.892Z,1.34
2019-01-03T15:49:42.804Z,0.88
2019-01-03T16:04:48.967Z,1.34
2019-01-03T16:19:55.057Z,1.50
2019-01-03T16:35:01.569Z,1.45
2019-01-03T16:50:14.774Z,1.32
2019-01-03T17:05:20.782Z,1.75
2019-01-03T17:20:27.074Z,1.35
2019-01-03T17:35:36.356Z,1.19
2019-01-03T17:50:42.547Z,1.48
2019-01-03T18:05:50.595Z,1.30
2019-01-03T18:20:56.851Z,1.36
2019-01-03T18:36:03.014Z,1.73
2019-01-03T18:51:08.988Z,1.66
2019-01-03T19:06:15.354Z,1.66
2019-01-03T19:21:21.642Z,1.75
2019-01-03T19:36:28.299Z,1.68
2019-01-03T19:51:34.166Z,1.71
2019-01-03T20:06:39.966Z,1.68
2019-01-03T20:21:46.250Z,1.72
2019-01-03T20:36:52.781Z,1.74
2019-01-03T20:51:59.473Z,1.69
2019-01-03T21:07:06.400Z,1.75
2019-01-03T21:22:12.280Z,1.82
2019-01-03T21:37:18.094Z,1.70
2019-01-03T21:52:24.185Z,1.83
2019-01-03T22:07:30.123Z,1.90
2019-01-03T22:22:36.274Z,1.83
2019-01-03T22:37:42.638Z,1.78
2019-01-03T22:52:49.268Z,1.83
2019-01-03T23:07:55.682Z,1.83
2019-01-03T23:23:01.966Z,1.78
2019-01-03T23:38:08.332Z,1.69
2019-01-03T23:53:14.559Z,1.64
